sensor_id;sensor_type;location;lat;lon;timestamp;temperature;humidity
16160;DHT22;8185;57.818;15.224;2023-11-21T00:00:25;1.10;99.90
16160;DHT22;8185;57.818;15.224;2023-11-21T00:02:53;1.10;99.90
16160;DHT22;8185;57.818;15.224;2023-11-21T00:05:20;1.10;99.90
16160;DHT22;8185;57.818;15.224;2023-11-21T00:07:50;1.00;99.90
16160;DHT22;8185;57.818;15.224;2023-11-21T00:10:18;1.00;99.90
16160;DHT22;8185;57.818;15.224;2023-11-21T00:12:45;1.00;99.90
16160;DHT22;8185;57.818;15.224;2023-11-21T00:15:14;1.00;99.90
16160;DHT22;8185;57.818;15.224;2023-11-21T00:17:41;0.90;99.90
16160;DHT22;8185;57.818;15.224;2023-11-21T00:20:10;1.00;99.90
16160;DHT22;8185;57.818;15.224;2023-11-21T00:22:39;1.00;99.90
16160;DHT22;8185;57.818;15.224;2023-11-21T00:25:09;1.00;99.90
16160;DHT22;8185;57.818;15.224;2023-11-21T00:27:36;0.90;99.90
16160;DHT22;8185;57.818;15.224;2023-11-21T00:30:04;0.90;99.90
16160;DHT22;8185;57.818;15.224;2023-11-21T00:32:32;0.90;99.90
16160;DHT22;8185;57.818;15.224;2023-11-21T00:34:59;0.90;99.90
16160;DHT22;8185;57.818;15.224;2023-11-21T00:37:27;0.90;99.90
16160;DHT22;8185;57.818;15.224;2023-11-21T00:39:54;0.90;99.90
16160;DHT22;8185;57.818;15.224;2023-11-21T00:42:23;0.90;99.90
16160;DHT22;8185;57.818;15.224;2023-11-21T00:44:50;0.90;99.90
16160;DHT22;8185;57.818;15.224;2023-11-21T00:47:17;0.90;99.90
16160;DHT22;8185;57.818;15.224;2023-11-21T00:49:44;0.90;99.90
16160;DHT22;8185;57.818;15.224;2023-11-21T00:52:12;1.00;99.90
16160;DHT22;8185;57.818;15.224;2023-11-21T00:54:39;0.90;99.90
16160;DHT22;8185;57.818;15.224;2023-11-21T00:57:06;1.00;99.90
16160;DHT22;8185;57.818;15.224;2023-11-21T00:59:35;1.00;99.90
16160;DHT22;8185;57.818;15.224;2023-11-21T01:02:03;0.90;99.90
16160;DHT22;8185;57.818;15.224;2023-11-21T01:04:30;0.90;99.90
16160;DHT22;8185;57.818;15.224;2023-11-21T01:06:58;1.00;99.90
16160;DHT22;8185;57.818;15.224;2023-11-21T01:09:26;1.00;99.90
16160;DHT22;8185;57.818;15.224;2023-11-21T01:11:53;1.00;99.90
16160;DHT22;8185;57.818;15.224;2023-11-21T01:14:21;1.00;99.90
16160;DHT22;8185;57.818;15.224;2023-11-21T01:16:49;1.00;99.90
16160;DHT22;8185;57.818;15.224;2023-11-21T01:19:17;1.00;99.90
16160;DHT22;8185;57.818;15.224;2023-11-21T01:21:44;0.90;99.90
16160;DHT22;8185;57.818;15.224;2023-11-21T01:24:11;1.00;99.90
16160;DHT22;8185;57.818;15.224;2023-11-21T01:26:38;0.90;99.90
16160;DHT22;8185;57.818;15.224;2023-11-21T01:29:06;0.90;99.90
16160;DHT22;8185;57.818;15.224;2023-11-21T01:31:33;0.90;99.90
16160;DHT22;8185;57.818;15.224;2023-11-21T01:34:02;0.90;99.90
16160;DHT22;8185;57.818;15.224;2023-11-21T01:36:31;0.90;99.90
16160;DHT22;8185;57.818;15.224;2023-11-21T01:38:59;1.00;99.90
16160;DHT22;8185;57.818;15.224;2023-11-21T01:41:27;0.90;99.90
16160;DHT22;8185;57.818;15.224;2023-11-21T01:43:54;0.90;99.90
16160;DHT22;8185;57.818;15.224;2023-11-21T01:46:23;0.90;99.90
16160;DHT22;8185;57.818;15.224;2023-11-21T01:48:50;0.90;99.90
16160;DHT22;8185;57.818;15.224;2023-11-21T01:51:20;0.90;99.90
16160;DHT22;8185;57.818;15.224;2023-11-21T01:53:47;0.90;99.90
16160;DHT22;8185;57.818;15.224;2023-11-21T01:56:15;0.90;99.90
16160;DHT22;8185;57.818;15.224;2023-11-21T01:58:42;0.90;99.90
16160;DHT22;8185;57.818;15.224;2023-11-21T02:01:12;0.90;99.90
16160;DHT22;8185;57.818;15.224;2023-11-21T02:03:40;0.90;99.90
16160;DHT22;8185;57.818;15.224;2023-11-21T02:06:07;0.80;99.90
16160;DHT22;8185;57.818;15.224;2023-11-21T02:08:37;0.80;99.90
16160;DHT22;8185;57.818;15.224;2023-11-21T02:11:05;0.80;99.90
16160;DHT22;8185;57.818;15.224;2023-11-21T02:13:33;0.80;99.90
16160;DHT22;8185;57.818;15.224;2023-11-21T02:16:01;0.80;99.90
16160;DHT22;8185;57.818;15.224;2023-11-21T02:18:28;0.80;99.90
16160;DHT22;8185;57.818;15.224;2023-11-21T02:20:56;0.80;99.90
16160;DHT22;8185;57.818;15.224;2023-11-21T02:23:24;0.80;99.90
16160;DHT22;8185;57.818;15.224;2023-11-21T02:25:54;0.80;99.90
16160;DHT22;8185;57.818;15.224;2023-11-21T02:28:22;0.80;99.90
16160;DHT22;8185;57.818;15.224;2023-11-21T02:30:51;0.90;99.90
16160;DHT22;8185;57.818;15.224;2023-11-21T02:33:21;0.90;99.90
16160;DHT22;8185;57.818;15.224;2023-11-21T02:35:48;0.90;99.90
16160;DHT22;8185;57.818;15.224;2023-11-21T02:38:17;0.90;99.90
16160;DHT22;8185;57.818;15.224;2023-11-21T02:40:45;0.90;99.90
16160;DHT22;8185;57.818;15.224;2023-11-21T02:43:13;0.90;99.90
16160;DHT22;8185;57.818;15.224;2023-11-21T02:45:40;0.80;99.90
16160;DHT22;8185;57.818;15.224;2023-11-21T02:48:08;0.80;99.90
16160;DHT22;8185;57.818;15.224;2023-11-21T02:50:35;0.80;99.90
16160;DHT22;8185;57.818;15.224;2023-11-21T02:53:03;0.80;99.90
16160;DHT22;8185;57.818;15.224;2023-11-21T02:55:32;0.80;99.90
16160;DHT22;8185;57.818;15.224;2023-11-21T02:58:03;0.80;99.90
16160;DHT22;8185;57.818;15.224;2023-11-21T03:00:32;0.80;99.90
16160;DHT22;8185;57.818;15.224;2023-11-21T03:02:59;0.70;99.90
16160;DHT22;8185;57.818;15.224;2023-11-21T03:05:26;0.80;99.90
16160;DHT22;8185;57.818;15.224;2023-11-21T03:07:54;0.70;99.90
16160;DHT22;8185;57.818;15.224;2023-11-21T03:10:22;0.70;99.90
16160;DHT22;8185;57.818;15.224;2023-11-21T03:12:49;0.70;99.90
16160;DHT22;8185;57.818;15.224;2023-11-21T03:15:18;0.70;99.90
16160;DHT22;8185;57.818;15.224;2023-11-21T03:17:45;0.70;99.90
16160;DHT22;8185;57.818;15.224;2023-11-21T03:20:15;0.70;99.90
16160;DHT22;8185;57.818;15.224;2023-11-21T03:22:42;0.70;99.90
16160;DHT22;8185;57.818;15.224;2023-11-21T03:25:10;0.70;99.90
16160;DHT22;8185;57.818;15.224;2023-11-21T03:27:37;0.80;99.90
16160;DHT22;8185;57.818;15.224;2023-11-21T03:30:08;0.70;99.90
16160;DHT22;8185;57.818;15.224;2023-11-21T03:32:38;0.70;99.90
16160;DHT22;8185;57.818;15.224;2023-11-21T03:35:05;0.70;99.90
16160;DHT22;8185;57.818;15.224;2023-11-21T03:37:33;0.80;99.90
16160;DHT22;8185;57.818;15.224;2023-11-21T03:40:00;0.70;99.90
16160;DHT22;8185;57.818;15.224;2023-11-21T03:42:29;0.70;99.90
16160;DHT22;8185;57.818;15.224;2023-11-21T03:44:57;0.70;99.90
16160;DHT22;8185;57.818;15.224;2023-11-21T03:47:25;0.70;99.90
16160;DHT22;8185;57.818;15.224;2023-11-21T03:49:54;0.70;99.90
16160;DHT22;8185;57.818;15.224;2023-11-21T03:52:21;0.70;99.90
16160;DHT22;8185;57.818;15.224;2023-11-21T03:54:49;0.70;99.90
16160;DHT22;8185;57.818;15.224;2023-11-21T03:57:16;0.70;99.90
16160;DHT22;8185;57.818;15.224;2023-11-21T03:59:43;0.70;99.90
16160;DHT22;8185;57.818;15.224;2023-11-21T04:02:11;0.70;99.90
16160;DHT22;8185;57.818;15.224;2023-11-21T04:04:38;0.70;99.90
16160;DHT22;8185;57.818;15.224;2023-11-21T04:07:07;0.70;99.90
16160;DHT22;8185;57.818;15.224;2023-11-21T04:09:34;0.70;99.90
16160;DHT22;8185;57.818;15.224;2023-11-21T04:12:02;0.70;99.90
16160;DHT22;8185;57.818;15.224;2023-11-21T04:14:29;0.70;99.90
16160;DHT22;8185;57.818;15.224;2023-11-21T04:16:56;0.70;99.90
16160;DHT22;8185;57.818;15.224;2023-11-21T04:19:23;0.70;99.90
16160;DHT22;8185;57.818;15.224;2023-11-21T04:21:51;0.70;99.90
16160;DHT22;8185;57.818;15.224;2023-11-21T04:24:20;0.70;99.90
16160;DHT22;8185;57.818;15.224;2023-11-21T04:26:47;0.70;99.90
16160;DHT22;8185;57.818;15.224;2023-11-21T04:29:14;0.70;99.90
16160;DHT22;8185;57.818;15.224;2023-11-21T04:31:42;0.70;99.90
16160;DHT22;8185;57.818;15.224;2023-11-21T04:34:09;0.70;99.90
16160;DHT22;8185;57.818;15.224;2023-11-21T04:36:36;0.70;99.90
16160;DHT22;8185;57.818;15.224;2023-11-21T04:39:04;0.70;99.90
16160;DHT22;8185;57.818;15.224;2023-11-21T04:41:34;0.70;99.90
16160;DHT22;8185;57.818;15.224;2023-11-21T04:44:02;0.70;99.90
16160;DHT22;8185;57.818;15.224;2023-11-21T04:46:30;0.70;99.90
16160;DHT22;8185;57.818;15.224;2023-11-21T04:48:58;0.60;99.90
16160;DHT22;8185;57.818;15.224;2023-11-21T04:51:25;0.70;99.90
16160;DHT22;8185;57.818;15.224;2023-11-21T04:53:53;0.60;99.90
16160;DHT22;8185;57.818;15.224;2023-11-21T04:56:20;0.60;99.90
16160;DHT22;8185;57.818;15.224;2023-11-21T04:58:49;0.60;99.90
16160;DHT22;8185;57.818;15.224;2023-11-21T05:01:16;0.60;99.90
16160;DHT22;8185;57.818;15.224;2023-11-21T05:03:43;0.60;99.90
16160;DHT22;8185;57.818;15.224;2023-11-21T05:06:12;0.60;99.90
16160;DHT22;8185;57.818;15.224;2023-11-21T05:08:39;0.60;99.90
16160;DHT22;8185;57.818;15.224;2023-11-21T05:11:08;0.60;99.90
16160;DHT22;8185;57.818;15.224;2023-11-21T05:13:36;0.60;99.90
16160;DHT22;8185;57.818;15.224;2023-11-21T05:16:06;0.60;99.90
16160;DHT22;8185;57.818;15.224;2023-11-21T05:18:34;0.60;99.90
16160;DHT22;8185;57.818;15.224;2023-11-21T05:21:02;0.60;99.90
16160;DHT22;8185;57.818;15.224;2023-11-21T05:23:30;0.60;99.90
16160;DHT22;8185;57.818;15.224;2023-11-21T05:25:59;0.60;99.90
16160;DHT22;8185;57.818;15.224;2023-11-21T05:28:27;0.60;99.90
16160;DHT22;8185;57.818;15.224;2023-11-21T05:30:54;0.60;99.90
16160;DHT22;8185;57.818;15.224;2023-11-21T05:33:23;0.60;99.90
16160;DHT22;8185;57.818;15.224;2023-11-21T05:35:51;0.60;99.90
16160;DHT22;8185;57.818;15.224;2023-11-21T05:38:18;0.60;99.90
16160;DHT22;8185;57.818;15.224;2023-11-21T05:40:47;0.60;99.90
16160;DHT22;8185;57.818;15.224;2023-11-21T05:43:15;0.60;99.90
16160;DHT22;8185;57.818;15.224;2023-11-21T05:45:42;0.60;99.90
16160;DHT22;8185;57.818;15.224;2023-11-21T05:48:09;0.60;99.90
16160;DHT22;8185;57.818;15.224;2023-11-21T05:50:38;0.50;99.90
16160;DHT22;8185;57.818;15.224;2023-11-21T05:53:05;0.50;99.90
16160;DHT22;8185;57.818;15.224;2023-11-21T05:55:32;0.50;99.90
16160;DHT22;8185;57.818;15.224;2023-11-21T05:58:00;0.50;99.90
16160;DHT22;8185;57.818;15.224;2023-11-21T06:00:27;0.50;99.90
16160;DHT22;8185;57.818;15.224;2023-11-21T06:02:54;0.50;99.90
16160;DHT22;8185;57.818;15.224;2023-11-21T06:05:24;0.50;99.90
16160;DHT22;8185;57.818;15.224;2023-11-21T06:07:54;0.50;99.90
16160;DHT22;8185;57.818;15.224;2023-11-21T06:10:22;0.50;99.90
16160;DHT22;8185;57.818;15.224;2023-11-21T06:12:49;0.50;99.90
16160;DHT22;8185;57.818;15.224;2023-11-21T06:15:17;0.50;99.90
16160;DHT22;8185;57.818;15.224;2023-11-21T06:17:46;0.50;99.90
16160;DHT22;8185;57.818;15.224;2023-11-21T06:20:18;0.50;99.90
16160;DHT22;8185;57.818;15.224;2023-11-21T06:22:47;0.50;99.90
16160;DHT22;8185;57.818;15.224;2023-11-21T06:25:15;0.40;99.90
16160;DHT22;8185;57.818;15.224;2023-11-21T06:27:43;0.40;99.90
16160;DHT22;8185;57.818;15.224;2023-11-21T06:30:11;0.40;99.90
16160;DHT22;8185;57.818;15.224;2023-11-21T06:32:39;0.40;99.90
16160;DHT22;8185;57.818;15.224;2023-11-21T06:35:06;0.40;99.90
16160;DHT22;8185;57.818;15.224;2023-11-21T06:37:35;0.40;99.90
16160;DHT22;8185;57.818;15.224;2023-11-21T06:40:02;0.40;99.90
16160;DHT22;8185;57.818;15.224;2023-11-21T06:42:32;0.40;99.90
16160;DHT22;8185;57.818;15.224;2023-11-21T06:44:59;0.40;99.90
16160;DHT22;8185;57.818;15.224;2023-11-21T06:47:29;0.30;99.90
16160;DHT22;8185;57.818;15.224;2023-11-21T06:49:56;0.30;99.90
16160;DHT22;8185;57.818;15.224;2023-11-21T06:52:23;0.30;99.90
16160;DHT22;8185;57.818;15.224;2023-11-21T06:54:50;0.30;99.90
16160;DHT22;8185;57.818;15.224;2023-11-21T06:57:17;0.30;99.90
16160;DHT22;8185;57.818;15.224;2023-11-21T06:59:46;0.30;99.90
16160;DHT22;8185;57.818;15.224;2023-11-21T07:02:13;0.30;99.90
16160;DHT22;8185;57.818;15.224;2023-11-21T07:04:40;0.30;99.90
16160;DHT22;8185;57.818;15.224;2023-11-21T07:07:07;0.30;99.90
16160;DHT22;8185;57.818;15.224;2023-11-21T07:09:34;0.30;99.90
16160;DHT22;8185;57.818;15.224;2023-11-21T07:12:01;0.30;99.90
16160;DHT22;8185;57.818;15.224;2023-11-21T07:14:29;0.30;99.90
16160;DHT22;8185;57.818;15.224;2023-11-21T07:16:59;0.30;99.90
16160;DHT22;8185;57.818;15.224;2023-11-21T07:19:26;0.30;99.90
16160;DHT22;8185;57.818;15.224;2023-11-21T07:21:53;0.30;99.90
16160;DHT22;8185;57.818;15.224;2023-11-21T07:24:21;0.30;99.90
16160;DHT22;8185;57.818;15.224;2023-11-21T07:26:48;0.30;99.90
16160;DHT22;8185;57.818;15.224;2023-11-21T07:29:15;0.30;99.90
16160;DHT22;8185;57.818;15.224;2023-11-21T07:31:42;0.30;99.90
16160;DHT22;8185;57.818;15.224;2023-11-21T07:34:10;0.30;99.90
16160;DHT22;8185;57.818;15.224;2023-11-21T07:36:37;0.30;99.90
16160;DHT22;8185;57.818;15.224;2023-11-21T07:39:04;0.30;99.90
16160;DHT22;8185;57.818;15.224;2023-11-21T07:41:32;0.30;99.90
16160;DHT22;8185;57.818;15.224;2023-11-21T07:43:59;0.20;99.90
16160;DHT22;8185;57.818;15.224;2023-11-21T07:46:26;0.30;99.90
16160;DHT22;8185;57.818;15.224;2023-11-21T07:48:53;0.30;99.90
16160;DHT22;8185;57.818;15.224;2023-11-21T07:51:22;0.30;99.90
16160;DHT22;8185;57.818;15.224;2023-11-21T07:53:49;0.30;99.90
16160;DHT22;8185;57.818;15.224;2023-11-21T07:56:16;0.30;99.90
16160;DHT22;8185;57.818;15.224;2023-11-21T07:58:44;0.30;99.90
16160;DHT22;8185;57.818;15.224;2023-11-21T08:01:11;0.30;99.90
16160;DHT22;8185;57.818;15.224;2023-11-21T08:03:38;0.30;99.90
16160;DHT22;8185;57.818;15.224;2023-11-21T08:06:05;0.40;99.90
16160;DHT22;8185;57.818;15.224;2023-11-21T08:08:34;0.40;99.90
16160;DHT22;8185;57.818;15.224;2023-11-21T08:11:01;0.40;99.90
16160;DHT22;8185;57.818;15.224;2023-11-21T08:13:29;0.40;99.90
16160;DHT22;8185;57.818;15.224;2023-11-21T08:15:56;0.40;99.90
16160;DHT22;8185;57.818;15.224;2023-11-21T08:18:27;0.40;99.90
16160;DHT22;8185;57.818;15.224;2023-11-21T08:20:54;0.40;99.90
16160;DHT22;8185;57.818;15.224;2023-11-21T08:23:21;0.40;99.90
16160;DHT22;8185;57.818;15.224;2023-11-21T08:25:52;0.40;99.90
16160;DHT22;8185;57.818;15.224;2023-11-21T08:28:19;0.50;99.90
16160;DHT22;8185;57.818;15.224;2023-11-21T08:30:47;0.40;99.90
16160;DHT22;8185;57.818;15.224;2023-11-21T08:33:14;0.50;99.90
16160;DHT22;8185;57.818;15.224;2023-11-21T08:35:41;0.50;99.90
16160;DHT22;8185;57.818;15.224;2023-11-21T08:38:08;0.50;99.90
16160;DHT22;8185;57.818;15.224;2023-11-21T08:40:37;0.50;99.90
16160;DHT22;8185;57.818;15.224;2023-11-21T08:43:06;0.50;99.90
16160;DHT22;8185;57.818;15.224;2023-11-21T08:45:33;0.50;99.90
16160;DHT22;8185;57.818;15.224;2023-11-21T08:48:00;0.50;99.90
16160;DHT22;8185;57.818;15.224;2023-11-21T08:50:27;0.50;99.90
16160;DHT22;8185;57.818;15.224;2023-11-21T08:52:54;0.60;99.90
16160;DHT22;8185;57.818;15.224;2023-11-21T08:55:22;0.60;99.90
16160;DHT22;8185;57.818;15.224;2023-11-21T08:57:49;0.60;99.90
16160;DHT22;8185;57.818;15.224;2023-11-21T09:00:18;0.50;99.90
16160;DHT22;8185;57.818;15.224;2023-11-21T09:02:45;0.60;99.90
16160;DHT22;8185;57.818;15.224;2023-11-21T09:05:12;0.60;99.90
16160;DHT22;8185;57.818;15.224;2023-11-21T09:07:40;0.60;99.90
16160;DHT22;8185;57.818;15.224;2023-11-21T09:10:07;0.60;99.90
16160;DHT22;8185;57.818;15.224;2023-11-21T09:12:34;0.60;99.90
16160;DHT22;8185;57.818;15.224;2023-11-21T09:15:03;0.70;99.90
16160;DHT22;8185;57.818;15.224;2023-11-21T09:17:32;0.60;99.90
16160;DHT22;8185;57.818;15.224;2023-11-21T09:19:59;0.70;99.90
16160;DHT22;8185;57.818;15.224;2023-11-21T09:22:26;0.70;99.90
16160;DHT22;8185;57.818;15.224;2023-11-21T09:24:55;0.80;99.90
16160;DHT22;8185;57.818;15.224;2023-11-21T09:27:23;0.80;99.90
16160;DHT22;8185;57.818;15.224;2023-11-21T09:29:51;0.80;99.90
16160;DHT22;8185;57.818;15.224;2023-11-21T09:32:19;0.80;99.90
16160;DHT22;8185;57.818;15.224;2023-11-21T09:34:48;0.80;99.90
16160;DHT22;8185;57.818;15.224;2023-11-21T09:37:16;0.90;99.90
16160;DHT22;8185;57.818;15.224;2023-11-21T09:39:43;0.90;99.90
16160;DHT22;8185;57.818;15.224;2023-11-21T09:42:12;0.90;99.90
16160;DHT22;8185;57.818;15.224;2023-11-21T09:44:46;0.90;99.90
16160;DHT22;8185;57.818;15.224;2023-11-21T09:47:15;0.90;99.90
16160;DHT22;8185;57.818;15.224;2023-11-21T09:49:46;0.90;99.90
16160;DHT22;8185;57.818;15.224;2023-11-21T09:52:22;0.90;99.90
16160;DHT22;8185;57.818;15.224;2023-11-21T09:54:51;0.80;99.90
16160;DHT22;8185;57.818;15.224;2023-11-21T09:57:20;0.80;99.90
16160;DHT22;8185;57.818;15.224;2023-11-21T09:59:51;0.80;99.90
16160;DHT22;8185;57.818;15.224;2023-11-21T10:02:23;0.80;99.90
16160;DHT22;8185;57.818;15.224;2023-11-21T10:04:52;0.80;99.90
16160;DHT22;8185;57.818;15.224;2023-11-21T10:07:21;0.80;99.90
16160;DHT22;8185;57.818;15.224;2023-11-21T10:09:51;0.80;99.90
16160;DHT22;8185;57.818;15.224;2023-11-21T10:12:20;0.80;99.90
16160;DHT22;8185;57.818;15.224;2023-11-21T10:14:49;0.80;99.90
16160;DHT22;8185;57.818;15.224;2023-11-21T10:17:18;0.90;99.90
16160;DHT22;8185;57.818;15.224;2023-11-21T10:19:47;0.90;99.90
16160;DHT22;8185;57.818;15.224;2023-11-21T10:22:15;0.90;99.90
16160;DHT22;8185;57.818;15.224;2023-11-21T10:24:44;1.00;99.90
16160;DHT22;8185;57.818;15.224;2023-11-21T10:27:11;1.00;99.90
16160;DHT22;8185;57.818;15.224;2023-11-21T10:29:39;1.00;99.90
16160;DHT22;8185;57.818;15.224;2023-11-21T10:32:07;1.00;99.90
16160;DHT22;8185;57.818;15.224;2023-11-21T10:34:35;1.00;99.90
16160;DHT22;8185;57.818;15.224;2023-11-21T10:37:11;1.00;99.90
16160;DHT22;8185;57.818;15.224;2023-11-21T10:39:39;1.00;99.90
16160;DHT22;8185;57.818;15.224;2023-11-21T10:42:10;1.00;99.90
16160;DHT22;8185;57.818;15.224;2023-11-21T10:44:37;1.00;99.90
16160;DHT22;8185;57.818;15.224;2023-11-21T10:47:04;1.00;99.90
16160;DHT22;8185;57.818;15.224;2023-11-21T10:49:32;1.10;99.90
16160;DHT22;8185;57.818;15.224;2023-11-21T10:51:59;1.10;99.90
16160;DHT22;8185;57.818;15.224;2023-11-21T10:54:27;1.10;99.90
16160;DHT22;8185;57.818;15.224;2023-11-21T10:56:58;1.00;99.90
16160;DHT22;8185;57.818;15.224;2023-11-21T10:59:29;1.00;99.90
16160;DHT22;8185;57.818;15.224;2023-11-21T11:01:58;1.00;99.90
16160;DHT22;8185;57.818;15.224;2023-11-21T11:04:27;1.00;99.90
16160;DHT22;8185;57.818;15.224;2023-11-21T11:06:57;1.00;99.90
16160;DHT22;8185;57.818;15.224;2023-11-21T11:09:26;1.10;99.90
16160;DHT22;8185;57.818;15.224;2023-11-21T11:11:53;1.10;99.90
16160;DHT22;8185;57.818;15.224;2023-11-21T11:14:21;1.00;99.90
16160;DHT22;8185;57.818;15.224;2023-11-21T11:16:53;1.10;99.90
16160;DHT22;8185;57.818;15.224;2023-11-21T11:19:22;1.10;99.90
16160;DHT22;8185;57.818;15.224;2023-11-21T11:21:56;1.10;99.90
16160;DHT22;8185;57.818;15.224;2023-11-21T11:24:46;1.10;99.90
16160;DHT22;8185;57.818;15.224;2023-11-21T11:27:24;1.10;99.90
16160;DHT22;8185;57.818;15.224;2023-11-21T11:30:03;1.00;99.90
16160;DHT22;8185;57.818;15.224;2023-11-21T11:32:43;1.00;99.90
16160;DHT22;8185;57.818;15.224;2023-11-21T11:35:19;1.00;99.90
16160;DHT22;8185;57.818;15.224;2023-11-21T11:37:51;1.00;99.90
16160;DHT22;8185;57.818;15.224;2023-11-21T11:40:18;0.90;99.90
16160;DHT22;8185;57.818;15.224;2023-11-21T11:42:56;0.90;99.90
16160;DHT22;8185;57.818;15.224;2023-11-21T11:45:31;1.00;99.90
16160;DHT22;8185;57.818;15.224;2023-11-21T11:48:02;1.00;99.90
16160;DHT22;8185;57.818;15.224;2023-11-21T11:50:30;1.00;99.90
16160;DHT22;8185;57.818;15.224;2023-11-21T11:53:13;1.00;99.90
16160;DHT22;8185;57.818;15.224;2023-11-21T11:55:40;1.00;99.90
16160;DHT22;8185;57.818;15.224;2023-11-21T11:58:08;1.00;99.90
16160;DHT22;8185;57.818;15.224;2023-11-21T12:00:36;0.90;99.90
16160;DHT22;8185;57.818;15.224;2023-11-21T12:03:08;0.90;99.90
16160;DHT22;8185;57.818;15.224;2023-11-21T12:05:36;0.90;99.90
16160;DHT22;8185;57.818;15.224;2023-11-21T12:08:07;0.90;99.90
16160;DHT22;8185;57.818;15.224;2023-11-21T12:10:36;0.80;99.90
16160;DHT22;8185;57.818;15.224;2023-11-21T12:13:06;0.80;99.90
16160;DHT22;8185;57.818;15.224;2023-11-21T12:15:34;0.80;99.90
16160;DHT22;8185;57.818;15.224;2023-11-21T12:18:02;0.80;99.90
16160;DHT22;8185;57.818;15.224;2023-11-21T12:20:31;0.80;99.90
16160;DHT22;8185;57.818;15.224;2023-11-21T12:23:05;0.80;99.90
16160;DHT22;8185;57.818;15.224;2023-11-21T12:25:32;0.80;99.90
16160;DHT22;8185;57.818;15.224;2023-11-21T12:28:01;0.80;99.90
16160;DHT22;8185;57.818;15.224;2023-11-21T12:30:30;0.80;99.90
16160;DHT22;8185;57.818;15.224;2023-11-21T12:32:59;0.80;99.90
16160;DHT22;8185;57.818;15.224;2023-11-21T12:35:28;0.80;99.90
16160;DHT22;8185;57.818;15.224;2023-11-21T12:38:01;0.80;99.90
16160;DHT22;8185;57.818;15.224;2023-11-21T12:40:29;0.70;99.90
16160;DHT22;8185;57.818;15.224;2023-11-21T12:42:58;0.70;99.90
16160;DHT22;8185;57.818;15.224;2023-11-21T12:45:28;0.70;99.90
16160;DHT22;8185;57.818;15.224;2023-11-21T12:47:58;0.70;99.90
16160;DHT22;8185;57.818;15.224;2023-11-21T12:50:28;0.70;99.90
16160;DHT22;8185;57.818;15.224;2023-11-21T12:53:01;0.70;99.90
16160;DHT22;8185;57.818;15.224;2023-11-21T12:55:31;0.70;99.90
16160;DHT22;8185;57.818;15.224;2023-11-21T12:58:01;0.70;99.90
16160;DHT22;8185;57.818;15.224;2023-11-21T13:00:36;0.70;99.90
16160;DHT22;8185;57.818;15.224;2023-11-21T13:03:05;0.70;99.90
16160;DHT22;8185;57.818;15.224;2023-11-21T13:05:34;0.70;99.90
16160;DHT22;8185;57.818;15.224;2023-11-21T13:08:06;0.70;99.90
16160;DHT22;8185;57.818;15.224;2023-11-21T13:10:36;0.70;99.90
16160;DHT22;8185;57.818;15.224;2023-11-21T13:13:06;0.70;99.90
16160;DHT22;8185;57.818;15.224;2023-11-21T13:15:34;0.70;99.90
16160;DHT22;8185;57.818;15.224;2023-11-21T13:18:02;0.70;99.90
16160;DHT22;8185;57.818;15.224;2023-11-21T13:20:29;0.70;99.90
16160;DHT22;8185;57.818;15.224;2023-11-21T13:22:58;0.70;99.90
16160;DHT22;8185;57.818;15.224;2023-11-21T13:25:28;0.70;99.90
16160;DHT22;8185;57.818;15.224;2023-11-21T13:27:57;0.70;99.90
16160;DHT22;8185;57.818;15.224;2023-11-21T13:30:28;0.70;99.90
16160;DHT22;8185;57.818;15.224;2023-11-21T13:32:59;0.70;99.90
16160;DHT22;8185;57.818;15.224;2023-11-21T13:35:32;0.70;99.90
16160;DHT22;8185;57.818;15.224;2023-11-21T13:38:05;0.60;99.90
16160;DHT22;8185;57.818;15.224;2023-11-21T13:40:34;0.60;99.90
16160;DHT22;8185;57.818;15.224;2023-11-21T13:43:08;0.60;99.90
16160;DHT22;8185;57.818;15.224;2023-11-21T13:45:36;0.60;99.90
16160;DHT22;8185;57.818;15.224;2023-11-21T13:48:05;0.60;99.90
16160;DHT22;8185;57.818;15.224;2023-11-21T13:50:36;0.60;99.90
16160;DHT22;8185;57.818;15.224;2023-11-21T13:53:03;0.60;99.90
16160;DHT22;8185;57.818;15.224;2023-11-21T13:55:45;0.60;99.90
16160;DHT22;8185;57.818;15.224;2023-11-21T13:58:13;0.60;99.90
16160;DHT22;8185;57.818;15.224;2023-11-21T14:00:45;0.60;99.90
16160;DHT22;8185;57.818;15.224;2023-11-21T14:03:21;0.60;99.90
16160;DHT22;8185;57.818;15.224;2023-11-21T14:05:51;0.60;99.90
16160;DHT22;8185;57.818;15.224;2023-11-21T14:08:19;0.50;99.90
16160;DHT22;8185;57.818;15.224;2023-11-21T14:10:48;0.50;99.90
16160;DHT22;8185;57.818;15.224;2023-11-21T14:13:21;0.40;99.90
16160;DHT22;8185;57.818;15.224;2023-11-21T14:15:49;0.40;99.90
16160;DHT22;8185;57.818;15.224;2023-11-21T14:18:23;0.40;99.90
16160;DHT22;8185;57.818;15.224;2023-11-21T14:21:00;0.40;99.90
16160;DHT22;8185;57.818;15.224;2023-11-21T14:23:27;0.30;99.90
16160;DHT22;8185;57.818;15.224;2023-11-21T14:25:57;0.30;99.90
16160;DHT22;8185;57.818;15.224;2023-11-21T14:28:26;0.30;99.90
16160;DHT22;8185;57.818;15.224;2023-11-21T14:30:54;0.30;99.90
16160;DHT22;8185;57.818;15.224;2023-11-21T14:33:21;0.20;99.90
16160;DHT22;8185;57.818;15.224;2023-11-21T14:35:48;0.20;99.90
16160;DHT22;8185;57.818;15.224;2023-11-21T14:38:16;0.10;99.90
16160;DHT22;8185;57.818;15.224;2023-11-21T14:40:43;0.10;99.90
16160;DHT22;8185;57.818;15.224;2023-11-21T14:43:12;0.10;99.90
16160;DHT22;8185;57.818;15.224;2023-11-21T14:45:39;0.00;99.90
16160;DHT22;8185;57.818;15.224;2023-11-21T14:48:06;0.00;99.90
16160;DHT22;8185;57.818;15.224;2023-11-21T14:50:41;0.00;99.90
16160;DHT22;8185;57.818;15.224;2023-11-21T14:53:36;0.00;99.90
16160;DHT22;8185;57.818;15.224;2023-11-21T14:56:09;0.00;99.90
16160;DHT22;8185;57.818;15.224;2023-11-21T14:58:37;0.10;99.90
16160;DHT22;8185;57.818;15.224;2023-11-21T15:01:05;0.10;99.90
16160;DHT22;8185;57.818;15.224;2023-11-21T15:03:33;0.10;99.90
16160;DHT22;8185;57.818;15.224;2023-11-21T15:06:15;0.10;99.90
16160;DHT22;8185;57.818;15.224;2023-11-21T15:08:55;0.00;99.90
16160;DHT22;8185;57.818;15.224;2023-11-21T15:11:43;0.00;99.90
16160;DHT22;8185;57.818;15.224;2023-11-21T15:14:12;0.00;99.90
16160;DHT22;8185;57.818;15.224;2023-11-21T15:16:45;0.00;99.90
16160;DHT22;8185;57.818;15.224;2023-11-21T15:19:16;-0.10;99.90
16160;DHT22;8185;57.818;15.224;2023-11-21T15:21:44;-0.10;99.90
16160;DHT22;8185;57.818;15.224;2023-11-21T15:24:11;-0.10;99.90
16160;DHT22;8185;57.818;15.224;2023-11-21T15:26:38;-0.20;99.90
16160;DHT22;8185;57.818;15.224;2023-11-21T15:29:05;-0.20;99.90
16160;DHT22;8185;57.818;15.224;2023-11-21T15:31:34;-0.20;99.90
16160;DHT22;8185;57.818;15.224;2023-11-21T15:34:02;-0.10;99.90
16160;DHT22;8185;57.818;15.224;2023-11-21T15:36:31;-0.20;99.90
16160;DHT22;8185;57.818;15.224;2023-11-21T15:38:59;-0.20;99.90
16160;DHT22;8185;57.818;15.224;2023-11-21T15:41:26;-0.10;99.90
16160;DHT22;8185;57.818;15.224;2023-11-21T15:43:53;-0.10;99.90
16160;DHT22;8185;57.818;15.224;2023-11-21T15:46:20;-0.20;99.90
16160;DHT22;8185;57.818;15.224;2023-11-21T15:48:48;-0.20;99.90
16160;DHT22;8185;57.818;15.224;2023-11-21T15:51:19;-0.20;99.90
16160;DHT22;8185;57.818;15.224;2023-11-21T15:53:46;-0.20;99.90